Time;durP1;ratioP1;P1;durP2;ratioP2;P2;SDS_P1;SDS_P2;PMS_P1;PMS_P2;Temp;Humidity;BMP_temperature;BMP_pressure;BME280_temperature;BME280_humidity;BME280_pressure;Samples;Min_cycle;Max_cycle;Signal;HPM_P1;HPM_P2
2023/05/15 00:01:58;;;;;;;2.20;2.00;;;;;;;14.36;67.36;99253.01;109276;1253;264890;-70
2023/05/15 00:04:25;;;;;;;4.60;2.00;;;;;;;14.33;68.22;99253.52;109540;1252;69726;-70
2023/05/15 00:06:52;;;;;;;5.20;2.40;;;;;;;14.30;68.93;99253.05;109580;1252;75079;-70
2023/05/15 00:09:21;;;;;;;2.60;2.40;;;;;;;14.29;69.56;99253.69;109495;1254;60881;-68
2023/05/15 00:11:48;;;;;;;5.40;2.20;;;;;;;14.30;69.85;99250.15;109591;1251;62434;-69
2023/05/15 00:14:15;;;;;;;6.10;2.10;;;;;;;14.29;70.44;99253.19;109535;1252;76889;-69
2023/05/15 00:16:42;;;;;;;4.10;2.10;;;;;;;14.26;70.78;99250.66;109500;1254;67943;-69
2023/05/15 00:19:09;;;;;;;3.20;2.00;;;;;;;14.25;70.99;99254.57;109571;1253;74026;-70
2023/05/15 00:21:36;;;;;;;5.20;2.20;;;;;;;14.23;71.32;99252.13;109508;1252;62916;-70
2023/05/15 00:24:03;;;;;;;9.30;2.50;;;;;;;14.20;71.92;99253.90;109599;1253;61073;-70
2023/05/15 00:26:29;;;;;;;3.60;2.20;;;;;;;14.19;72.53;99253.39;109543;1253;74631;-69
2023/05/15 00:28:56;;;;;;;6.50;2.40;;;;;;;14.17;73.12;99250.42;109582;1252;68485;-70
2023/05/15 00:31:23;;;;;;;3.50;2.40;;;;;;;14.15;73.52;99246.96;109562;1253;73248;-70
2023/05/15 00:33:50;;;;;;;5.00;1.90;;;;;;;14.12;73.96;99243.52;109471;1252;58981;-69
2023/05/15 00:36:17;;;;;;;5.50;2.70;;;;;;;14.06;74.66;99242.98;109585;1253;62345;-70
2023/05/15 00:38:44;;;;;;;2.90;2.50;;;;;;;13.99;75.55;99243.46;109549;1252;74846;-69
2023/05/15 00:41:10;;;;;;;2.40;2.10;;;;;;;13.94;76.21;99244.33;109637;1251;68292;-69
2023/05/15 00:43:38;;;;;;;3.80;2.50;;;;;;;13.89;76.77;99241.92;109503;1252;74737;-69
2023/05/15 00:46:05;;;;;;;3.50;2.40;;;;;;;13.85;77.32;99244.98;109590;1252;59091;-69
2023/05/15 00:48:32;;;;;;;3.50;2.10;;;;;;;13.81;77.99;99240.71;109566;1253;62418;-69
2023/05/15 00:50:59;;;;;;;5.30;2.20;;;;;;;13.77;78.61;99234.61;109583;1253;73606;-69
2023/05/15 00:53:26;;;;;;;5.60;2.30;;;;;;;13.74;79.20;99233.60;109385;1254;68136;-69
2023/05/15 00:55:55;;;;;;;7.20;2.90;;;;;;;13.71;79.84;99230.79;109509;1253;73692;-69
2023/05/15 00:58:22;;;;;;;2.60;2.10;;;;;;;13.69;80.32;99233.41;109428;1253;61173;-69
2023/05/15 01:00:49;;;;;;;4.10;2.10;;;;;;;13.67;80.62;99231.79;109563;1252;61622;-69
2023/05/15 01:03:16;;;;;;;3.50;2.60;;;;;;;13.67;80.88;99234.75;109561;1252;76298;-70
2023/05/15 01:05:43;;;;;;;2.80;2.00;;;;;;;13.67;80.99;99231.61;109624;1252;66750;-70
2023/05/15 01:08:29;;;;;;;2.50;2.20;;;;;;;13.65;81.35;99228.86;109472;1252;75000;-69
2023/05/15 01:10:55;;;;;;;2.90;2.20;;;;;;;13.62;81.75;99226.40;109400;1252;62946;-70
2023/05/15 01:13:24;;;;;;;3.30;2.30;;;;;;;13.51;82.32;99227.53;109487;1253;60943;-69
2023/05/15 01:15:50;;;;;;;6.20;2.40;;;;;;;13.46;82.86;99224.91;109585;1253;74781;-70
2023/05/15 01:18:18;;;;;;;6.40;2.90;;;;;;;13.42;83.35;99222.93;109489;1252;68395;-70
2023/05/15 01:21:03;;;;;;;5.00;2.20;;;;;;;13.37;84.02;99226.69;109553;1253;72964;-70
2023/05/15 01:23:55;;;;;;;4.20;2.40;;;;;;;13.33;84.82;99223.33;109360;1253;60397;-69
2023/05/15 01:26:27;;;;;;;3.40;2.30;;;;;;;13.28;85.61;99227.02;109601;1252;60441;-69
2023/05/15 01:29:00;;;;;;;2.60;1.90;;;;;;;13.25;86.06;99225.61;109512;1252;75402;-69
2023/05/15 01:31:27;;;;;;;4.60;2.10;;;;;;;13.23;86.50;99222.49;109498;1252;69044;-70
2023/05/15 01:33:55;;;;;;;4.00;2.00;;;;;;;13.22;86.70;99219.05;109452;1252;72373;-69
2023/05/15 01:36:43;;;;;;;3.90;1.90;;;;;;;13.20;86.92;99216.06;109373;1251;59416;-69
2023/05/15 01:39:10;;;;;;;4.40;2.20;;;;;;;13.18;87.13;99209.39;109569;1252;60337;-69
2023/05/15 01:41:57;;;;;;;4.30;2.40;;;;;;;13.16;87.71;99212.52;109401;1253;74979;-69
2023/05/15 01:44:28;;;;;;;3.20;2.40;;;;;;;13.13;88.22;99211.15;109420;1253;69435;-69
2023/05/15 01:46:56;;;;;;;5.80;2.20;;;;;;;13.09;88.76;99208.45;109479;1253;74690;-69
2023/05/15 01:49:27;;;;;;;2.40;2.00;;;;;;;13.05;89.16;99209.46;109390;1252;60787;-69
2023/05/15 01:51:58;;;;;;;6.20;2.90;;;;;;;13.01;89.42;99212.09;109516;1252;61370;-69
2023/05/15 01:54:25;;;;;;;2.30;2.10;;;;;;;12.97;89.81;99213.13;109430;1251;76825;-69
2023/05/15 01:56:52;;;;;;;4.10;2.30;;;;;;;12.94;90.29;99211.34;109550;1252;69482;-69
2023/05/15 01:59:19;;;;;;;5.70;2.30;;;;;;;12.93;90.95;99214.17;109398;1253;73068;-69
2023/05/15 02:01:45;;;;;;;7.60;2.40;;;;;;;12.93;91.09;99208.70;109393;1252;62628;-69
2023/05/15 02:04:12;;;;;;;3.50;2.10;;;;;;;12.91;91.30;99204.70;109499;1252;61754;-70
2023/05/15 02:06:39;;;;;;;2.50;2.20;;;;;;;12.92;91.63;99204.01;109281;1253;74486;-69
2023/05/15 02:09:07;;;;;;;5.50;2.40;;;;;;;12.92;92.00;99200.60;109542;1252;70016;-69
2023/05/15 02:11:34;;;;;;;6.00;2.50;;;;;;;12.91;92.18;99197.98;109344;1254;72013;-68
2023/05/15 02:14:02;;;;;;;2.80;2.30;;;;;;;12.90;92.35;99191.59;109152;1252;61511;-69
2023/05/15 02:16:28;;;;;;;3.40;2.60;;;;;;;12.89;92.62;99192.36;109564;1252;62363;-69
2023/05/15 02:18:55;;;;;;;3.70;2.40;;;;;;;12.88;93.15;99186.95;109383;1252;76966;-69
2023/05/15 02:21:22;;;;;;;2.60;2.20;;;;;;;12.88;93.32;99183.39;109579;1251;68504;-69
2023/05/15 02:23:49;;;;;;;4.50;2.10;;;;;;;12.89;93.54;99185.13;109539;1252;73859;-69
2023/05/15 02:26:31;;;;;;;3.10;2.20;;;;;;;12.90;93.69;99188.67;109512;1252;61771;-69
2023/05/15 02:29:20;;;;;;;3.20;2.20;;;;;;;12.91;93.90;99181.52;109506;1252;62286;-69
2023/05/15 02:32:09;;;;;;;3.60;1.90;;;;;;;12.92;94.05;99178.67;109487;1251;75204;-69
2023/05/15 02:35:00;;;;;;;3.30;2.50;;;;;;;12.94;94.28;99180.59;109536;1253;68339;-69
2023/05/15 02:37:29;;;;;;;3.10;2.40;;;;;;;12.97;94.40;99181.21;109387;1256;74947;-69
2023/05/15 02:39:58;;;;;;;2.40;2.20;;;;;;;13.00;94.44;99177.70;109547;1251;62747;-69
2023/05/15 02:42:25;;;;;;;3.80;2.20;;;;;;;13.02;94.43;99179.20;109391;1253;61077;-70
2023/05/15 02:44:53;;;;;;;3.80;2.00;;;;;;;13.06;94.43;99178.05;109565;1252;77102;-70
2023/05/15 02:47:20;;;;;;;4.30;2.30;;;;;;;13.10;94.24;99178.23;109441;1251;69772;-70
2023/05/15 02:49:47;;;;;;;4.10;2.50;;;;;;;13.16;94.15;99178.85;109437;1252;73757;-69
2023/05/15 02:52:14;;;;;;;3.40;2.30;;;;;;;13.23;94.13;99181.50;109475;1253;62213;-69
2023/05/15 02:54:41;;;;;;;2.90;2.10;;;;;;;13.32;94.04;99183.94;109431;1252;59683;-69
2023/05/15 02:57:08;;;;;;;4.80;2.30;;;;;;;13.41;93.77;99180.27;109469;1252;76062;-70
2023/05/15 02:59:35;;;;;;;2.90;2.20;;;;;;;13.52;93.39;99186.70;109555;1252;68634;-69
2023/05/15 03:02:02;;;;;;;5.00;2.60;;;;;;;13.63;92.73;99181.02;109596;1253;71587;-70
2023/05/15 03:04:29;;;;;;;7.00;2.10;;;;;;;13.72;92.10;99182.34;109558;1252;62411;-69
2023/05/15 03:06:56;;;;;;;4.10;2.20;;;;;;;13.80;91.21;99180.00;109577;1252;61157;-70
2023/05/15 03:09:24;;;;;;;4.20;2.10;;;;;;;13.90;90.75;99180.88;109578;1252;76316;-69
2023/05/15 03:11:51;;;;;;;2.70;2.40;;;;;;;14.00;90.14;99172.95;109580;1251;69219;-71
2023/05/15 03:14:17;;;;;;;3.10;2.20;;;;;;;14.11;89.58;99168.61;109423;1252;73758;-69
2023/05/15 03:16:44;;;;;;;3.80;2.20;;;;;;;14.24;89.13;99168.83;109547;1252;60504;-69
2023/05/15 03:19:11;;;;;;;4.60;2.30;;;;;;;14.39;88.60;99165.70;109582;1253;59056;-69
2023/05/15 03:21:38;;;;;;;3.60;2.10;;;;;;;14.51;88.22;99160.90;109589;1252;74803;-69
2023/05/15 03:24:05;;;;;;;3.10;2.20;;;;;;;14.60;87.83;99158.86;109597;1251;67324;-70
2023/05/15 03:26:32;;;;;;;3.80;2.40;;;;;;;14.72;87.45;99156.25;109383;1252;74853;-70
2023/05/15 03:28:59;;;;;;;4.90;2.50;;;;;;;14.87;87.05;99153.33;109340;1253;60457;-70
2023/05/15 03:31:26;;;;;;;2.80;2.20;;;;;;;15.09;86.84;99155.92;109455;1253;61444;-69
2023/05/15 03:33:53;;;;;;;4.50;2.30;;;;;;;15.37;86.12;99152.69;109498;1252;75281;-69
2023/05/15 03:36:21;;;;;;;4.00;2.10;;;;;;;15.71;84.79;99152.80;109554;1252;67755;-69
2023/05/15 03:38:48;;;;;;;3.60;2.20;;;;;;;16.08;83.19;99148.58;109385;1253;73435;-70
2023/05/15 03:41:15;;;;;;;2.90;2.10;;;;;;;16.44;81.70;99150.14;109492;1252;61646;-70
2023/05/15 03:43:41;;;;;;;4.50;1.80;;;;;;;16.73;80.00;99150.01;109451;1253;59440;-70
2023/05/15 03:46:08;;;;;;;3.10;1.90;;;;;;;17.06;78.24;99147.27;109541;1252;74397;-69
2023/05/15 03:48:39;;;;;;;3.10;1.90;;;;;;;17.44;75.90;99145.14;109472;1252;70208;-69
2023/05/15 03:51:05;;;;;;;3.90;1.80;;;;;;;17.82;73.19;99141.66;109597;1252;74294;-69
2023/05/15 03:53:32;;;;;;;5.40;2.40;;;;;;;18.16;70.63;99138.42;109541;1252;61271;-70
2023/05/15 03:55:59;;;;;;;3.20;2.20;;;;;;;18.37;67.74;99139.13;109535;1252;61116;-71
2023/05/15 03:58:26;;;;;;;3.80;2.00;;;;;;;18.38;65.83;99139.25;109593;1252;77107;-68
2023/05/15 04:00:53;;;;;;;2.10;1.80;;;;;;;18.26;65.11;99139.77;109549;1252;70432;-70
2023/05/15 04:03:19;;;;;;;3.70;2.00;;;;;;;18.08;65.36;99139.15;109530;1252;73981;-69
2023/05/15 04:05:48;;;;;;;3.90;2.10;;;;;;;17.87;65.58;99138.50;109508;1252;62236;-70
2023/05/15 04:08:15;;;;;;;3.90;2.10;;;;;;;17.68;65.87;99136.61;109560;1252;60763;-70
2023/05/15 04:10:42;;;;;;;3.40;2.10;;;;;;;17.50;66.33;99130.34;109597;1252;74341;-70
2023/05/15 04:13:09;;;;;;;4.00;2.00;;;;;;;17.38;66.92;99132.30;109520;1252;68969;-69
2023/05/15 04:15:36;;;;;;;2.40;2.00;;;;;;;17.27;67.70;99127.15;109571;1252;72490;-69
2023/05/15 04:18:02;;;;;;;3.00;1.90;;;;;;;17.18;67.77;99125.63;109529;1252;59508;-71
2023/05/15 04:20:29;;;;;;;4.90;2.00;;;;;;;17.09;68.19;99127.64;109587;1252;62380;-70
2023/05/15 04:22:56;;;;;;;3.60;1.90;;;;;;;17.03;68.08;99124.20;109532;1252;76040;-70
2023/05/15 04:25:23;;;;;;;5.40;2.30;;;;;;;16.98;68.19;99123.70;109538;1253;69799;-69
2023/05/15 04:27:50;;;;;;;6.00;1.80;;;;;;;16.93;68.62;99120.30;109573;1251;74705;-70
2023/05/15 04:30:17;;;;;;;3.30;2.00;;;;;;;16.94;69.17;99116.21;109509;1252;60255;-68
2023/05/15 04:32:44;;;;;;;2.60;2.10;;;;;;;17.08;68.82;99117.66;109572;1252;62221;-70
2023/05/15 04:35:12;;;;;;;3.80;2.20;;;;;;;17.27;68.45;99114.58;109556;1252;73437;-69
2023/05/15 04:37:40;;;;;;;2.30;1.90;;;;;;;17.48;67.31;99107.73;109551;1252;68932;-70
2023/05/15 04:40:07;;;;;;;3.80;2.10;;;;;;;17.61;66.48;99103.20;109511;1251;73451;-69
2023/05/15 04:42:35;;;;;;;3.30;2.00;;;;;;;17.61;66.09;99100.84;109530;1252;61488;-69
2023/05/15 04:45:05;;;;;;;4.70;2.00;;;;;;;17.52;66.20;99100.19;109554;1253;63287;-70
2023/05/15 04:47:32;;;;;;;5.10;1.90;;;;;;;17.45;67.21;99098.60;109545;1252;75615;-69
2023/05/15 04:49:58;;;;;;;2.80;1.80;;;;;;;17.41;68.29;99095.61;109572;1251;66947;-70
2023/05/15 04:52:25;;;;;;;3.10;1.80;;;;;;;17.38;68.69;99088.26;109490;1252;74930;-68
2023/05/15 04:54:54;;;;;;;6.00;2.00;;;;;;;17.34;69.39;99087.12;109517;1252;62158;-67
2023/05/15 04:57:21;;;;;;;2.90;2.10;;;;;;;17.27;69.77;99086.09;109580;1252;61059;-70
2023/05/15 04:59:48;;;;;;;2.60;1.70;;;;;;;17.21;69.84;99086.84;109529;1252;76727;-70
2023/05/15 05:02:15;;;;;;;4.10;1.90;;;;;;;17.14;70.13;99083.73;109516;1252;70348;-70
2023/05/15 05:04:42;;;;;;;2.00;1.50;;;;;;;17.08;70.92;99080.95;109582;1252;73130;-70
2023/05/15 05:07:09;;;;;;;5.20;2.10;;;;;;;17.12;71.77;99075.65;109549;1252;61131;-70
2023/05/15 05:09:37;;;;;;;5.60;1.90;;;;;;;17.35;72.13;99067.75;109521;1252;63459;-68
2023/05/15 05:12:06;;;;;;;3.20;2.10;;;;;;;17.79;71.61;99063.38;109535;1251;76727;-69
2023/05/15 05:14:33;;;;;;;2.80;2.30;;;;;;;18.28;68.82;99067.30;109603;1251;66968;-69
2023/05/15 05:16:59;;;;;;;2.60;2.00;;;;;;;18.69;66.03;99062.92;109502;1251;72723;-72
2023/05/15 05:19:29;;;;;;;7.20;2.20;;;;;;;18.96;64.49;99060.45;109490;1252;61130;-71
2023/05/15 05:22:00;;;;;;;4.40;1.80;;;;;;;19.40;62.44;99057.59;109565;1252;59080;-74
2023/05/15 05:24:27;;;;;;;3.70;1.70;;;;;;;19.85;60.21;99053.45;109507;1252;75326;-72
2023/05/15 05:26:56;;;;;;;5.60;2.00;;;;;;;20.04;59.07;99051.55;109554;1252;70141;-69
2023/05/15 05:29:24;;;;;;;2.90;2.00;;;;;;;19.95;57.91;99051.92;109545;1252;73841;-68
2023/05/15 05:31:51;;;;;;;3.80;1.90;;;;;;;19.68;58.50;99054.52;109489;1252;58996;-74
2023/05/15 05:34:18;;;;;;;3.70;2.00;;;;;;;19.48;59.77;99053.35;109521;1251;61162;-67
2023/05/15 05:36:45;;;;;;;3.70;1.80;;;;;;;19.49;60.52;99050.31;109446;1252;76592;-69
2023/05/15 05:39:12;;;;;;;4.40;2.20;;;;;;;19.87;60.99;99048.48;109398;1252;70030;-65
2023/05/15 05:41:39;;;;;;;4.10;2.00;;;;;;;20.55;59.41;99052.83;109532;1251;71419;-68
2023/05/15 05:44:05;;;;;;;3.60;1.50;;;;;;;21.39;56.44;99051.61;109506;1253;62145;-68
2023/05/15 05:46:32;;;;;;;6.50;2.20;;;;;;;22.28;51.61;99044.55;109575;1252;59998;-68
2023/05/15 05:48:59;;;;;;;6.40;2.20;;;;;;;23.06;47.89;99036.34;109562;1251;76687;-68
2023/05/15 05:51:26;;;;;;;2.60;1.50;;;;;;;23.71;44.51;99035.84;109531;1252;67533;-71
2023/05/15 05:53:52;;;;;;;3.70;2.00;;;;;;;24.24;42.53;99031.52;109571;1251;71124;-68
2023/05/15 05:56:20;;;;;;;9.40;2.10;;;;;;;24.73;40.81;99032.27;109440;1252;60580;-67
2023/05/15 05:58:47;;;;;;;3.00;2.40;;;;;;;24.91;38.34;99040.86;109477;1252;62638;-68
2023/05/15 06:01:14;;;;;;;7.80;2.70;;;;;;;24.76;37.54;99042.98;109397;1253;76603;-71
2023/05/15 06:03:41;;;;;;;4.90;1.80;;;;;;;24.30;36.96;99036.47;109514;1252;66420;-67
2023/05/15 06:06:08;;;;;;;5.90;1.80;;;;;;;23.59;38.24;99021.79;109481;1252;74048;-70
2023/05/15 06:08:35;;;;;;;6.40;2.30;;;;;;;22.85;39.85;99032.29;109477;1252;62604;-68
2023/05/15 06:11:02;;;;;;;9.80;1.90;;;;;;;22.27;41.50;99032.14;109483;1252;60948;-69
2023/05/15 06:13:29;;;;;;;7.50;1.80;;;;;;;22.07;42.33;99033.25;109504;1252;75739;-67
2023/05/15 06:15:56;;;;;;;4.80;1.80;;;;;;;22.38;41.71;99033.11;109569;1252;66269;-68
2023/05/15 06:18:23;;;;;;;4.80;2.10;;;;;;;22.94;41.24;99023.13;109553;1252;72993;-66
2023/05/15 06:20:50;;;;;;;3.70;2.10;;;;;;;23.58;39.87;99025.36;109508;1253;61448;-68
2023/05/15 06:23:17;;;;;;;2.10;1.80;;;;;;;24.22;38.50;99026.83;109447;1252;60341;-73
2023/05/15 06:25:44;;;;;;;4.40;1.70;;;;;;;24.62;37.25;99026.55;109435;1253;74817;-70
2023/05/15 06:28:10;;;;;;;3.10;1.70;;;;;;;24.67;36.72;99022.63;109253;1252;70286;-69
2023/05/15 06:30:37;;;;;;;5.20;2.50;;;;;;;24.47;36.28;99021.77;109386;1252;71671;-69
2023/05/15 06:33:04;;;;;;;4.80;1.60;;;;;;;24.10;36.58;99021.97;109396;1251;63175;-70
2023/05/15 06:35:31;;;;;;;7.70;2.50;;;;;;;23.61;37.22;99017.73;109411;1253;60905;-66
2023/05/15 06:37:58;;;;;;;3.90;2.10;;;;;;;23.14;38.18;99016.11;109547;1252;74610;-67
2023/05/15 06:40:24;;;;;;;8.80;2.30;;;;;;;22.82;39.21;99008.95;109471;1252;69894;-67
2023/05/15 06:42:52;;;;;;;8.90;2.50;;;;;;;22.78;40.01;99004.58;109452;1252;73830;-67
2023/05/15 06:45:18;;;;;;;7.50;2.00;;;;;;;22.98;40.29;99002.66;109491;1252;58946;-69
2023/05/15 06:47:45;;;;;;;4.70;1.60;;;;;;;23.29;40.57;99002.79;109389;1252;60585;-67
2023/05/15 06:50:12;;;;;;;3.00;1.70;;;;;;;23.57;39.74;99000.83;109446;1253;76718;-70
2023/05/15 06:52:39;;;;;;;2.90;1.90;;;;;;;23.95;38.44;98996.75;109444;1252;70078;-67
2023/05/15 06:55:06;;;;;;;3.90;1.80;;;;;;;24.23;37.18;99008.46;109402;1253;74441;-68
2023/05/15 06:57:33;;;;;;;5.20;2.20;;;;;;;24.07;35.90;98991.26;109392;1253;61222;-67
2023/05/15 07:00:00;;;;;;;8.50;2.00;;;;;;;23.74;36.76;98993.44;109365;1252;59003;-67
2023/05/15 07:02:26;;;;;;;9.10;2.30;;;;;;;23.35;36.68;99005.70;109595;1252;72571;-69
2023/05/15 07:04:53;;;;;;;6.60;2.00;;;;;;;22.97;36.69;99012.80;109527;1252;69511;-66
2023/05/15 07:07:20;;;;;;;9.70;2.10;;;;;;;22.66;36.89;98998.90;109526;1252;72480;-70
2023/05/15 07:09:47;;;;;;;8.60;1.90;;;;;;;22.48;38.19;98992.28;109524;1253;59305;-71
2023/05/15 07:12:14;;;;;;;7.90;2.30;;;;;;;22.38;37.17;99004.98;109509;1253;62229;-69
2023/05/15 07:14:41;;;;;;;7.00;2.30;;;;;;;22.23;37.87;98989.30;109576;1252;74650;-68
2023/05/15 07:17:08;;;;;;;7.30;1.60;;;;;;;22.12;38.88;98988.23;109583;1251;69186;-71
2023/05/15 07:19:35;;;;;;;9.90;2.00;;;;;;;22.11;39.13;98992.65;109551;1252;73302;-68
2023/05/15 07:22:02;;;;;;;12.80;2.50;;;;;;;22.23;38.65;98991.35;109504;1253;61466;-66
2023/05/15 07:24:29;;;;;;;7.10;1.80;;;;;;;22.20;38.90;98988.67;109615;1252;59003;-68
2023/05/15 07:26:56;;;;;;;9.30;2.20;;;;;;;22.08;38.81;98997.06;109545;1252;74741;-69
2023/05/15 07:29:24;;;;;;;8.20;1.90;;;;;;;22.18;39.13;98989.31;109588;1253;70117;-68
2023/05/15 07:31:52;;;;;;;5.10;2.10;;;;;;;22.64;38.69;98970.20;109484;1252;74800;-68
2023/05/15 07:34:19;;;;;;;5.70;1.60;;;;;;;23.27;38.16;98981.06;109547;1253;59027;-66
2023/05/15 07:36:45;;;;;;;3.80;1.60;;;;;;;23.84;36.02;98993.04;109543;1252;61261;-69
2023/05/15 07:39:12;;;;;;;7.90;2.10;;;;;;;24.11;35.06;98981.61;109583;1251;75161;-66
2023/05/15 07:41:39;;;;;;;7.60;2.20;;;;;;;24.04;35.22;98971.58;109603;1252;69086;-67
2023/05/15 07:44:06;;;;;;;4.90;1.50;;;;;;;23.86;35.86;98980.27;109572;1251;75136;-66
2023/05/15 07:46:33;;;;;;;7.90;2.30;;;;;;;23.77;35.48;98980.91;109563;1251;61482;-68
2023/05/15 07:49:00;;;;;;;2.40;1.80;;;;;;;23.72;34.95;98995.39;109551;1252;59679;-69
2023/05/15 07:51:27;;;;;;;7.40;2.00;;;;;;;23.78;35.26;98969.71;109531;1253;75540;-69
2023/05/15 07:53:54;;;;;;;10.20;2.30;;;;;;;23.68;35.51;98978.70;109590;1252;70357;-70
2023/05/15 07:56:21;;;;;;;2.40;1.90;;;;;;;23.53;36.18;98988.05;109562;1253;73957;-67
2023/05/15 07:58:48;;;;;;;4.10;1.90;;;;;;;23.68;35.90;98973.11;109552;1253;62442;-66
2023/05/15 08:01:14;;;;;;;10.00;2.20;;;;;;;24.02;33.33;98998.95;109533;1253;60004;-66
2023/05/15 08:03:41;;;;;;;9.50;2.00;;;;;;;24.34;31.85;98973.95;109633;1251;75671;-66
2023/05/15 08:06:08;;;;;;;3.00;1.90;;;;;;;24.56;30.13;99004.80;109545;1253;67935;-68
2023/05/15 08:08:35;;;;;;;9.30;2.40;;;;;;;24.59;29.78;98983.91;109494;1252;73860;-65
2023/05/15 08:11:02;;;;;;;11.40;2.50;;;;;;;24.61;28.38;99005.11;109324;1258;59055;-68
2023/05/15 08:13:28;;;;;;;10.40;1.90;;;;;;;24.47;27.31;99001.20;109592;1251;61540;-68
2023/05/15 08:15:55;;;;;;;5.10;1.70;;;;;;;24.16;27.13;99015.41;109588;1251;74815;-67
2023/05/15 08:18:22;;;;;;;5.70;1.90;;;;;;;23.81;27.64;98972.50;109596;1252;67843;-68
2023/05/15 08:20:49;;;;;;;6.20;1.90;;;;;;;23.68;28.52;98974.80;109576;1252;73733;-69
2023/05/15 08:23:16;;;;;;;4.60;1.60;;;;;;;23.63;29.14;98980.59;109566;1253;58945;-70
2023/05/15 08:25:42;;;;;;;7.30;1.60;;;;;;;23.52;29.09;98986.85;109569;1252;60132;-68
2023/05/15 08:28:09;;;;;;;4.50;2.00;;;;;;;23.36;29.39;98980.08;109625;1252;77227;-67
2023/05/15 08:30:36;;;;;;;3.60;1.60;;;;;;;23.26;29.84;98984.37;109568;1252;66977;-68
2023/05/15 08:33:03;;;;;;;2.40;1.60;;;;;;;23.20;29.91;98992.05;109531;1252;71298;-68
2023/05/15 08:35:30;;;;;;;5.10;1.70;;;;;;;23.16;30.07;98983.39;109569;1253;58920;-67
2023/05/15 08:37:57;;;;;;;2.90;1.80;;;;;;;23.12;30.76;98986.68;109563;1252;62292;-67
2023/05/15 08:40:24;;;;;;;5.20;1.80;;;;;;;23.03;31.74;98966.67;109560;1253;74796;-70
2023/05/15 08:43:02;;;;;;;6.70;2.10;;;;;;;22.96;31.83;98965.55;109515;1252;69978;-68
2023/05/15 08:45:29;;;;;;;6.70;2.00;;;;;;;22.91;32.30;98957.91;109430;1252;71943;-69
2023/05/15 08:47:56;;;;;;;6.60;1.80;;;;;;;22.94;31.81;98967.33;109514;1251;60708;-66
2023/05/15 08:50:23;;;;;;;4.50;1.90;;;;;;;23.25;30.97;98960.39;109369;1251;61233;-68
2023/05/15 08:52:50;;;;;;;5.40;1.90;;;;;;;23.56;30.10;98939.35;109488;1253;76205;-67
2023/05/15 08:55:17;;;;;;;12.70;2.90;;;;;;;24.07;29.51;98939.52;109580;1256;68541;-68
2023/05/15 08:57:44;;;;;;;3.80;1.70;;;;;;;24.55;29.04;98952.10;109526;1252;73487;-71
2023/05/15 09:00:13;;;;;;;4.20;1.60;;;;;;;24.76;28.30;98949.58;109555;1253;58951;-69
2023/05/15 09:02:41;;;;;;;3.00;1.90;;;;;;;24.75;28.40;98943.86;109529;1251;62395;-67
2023/05/15 09:05:08;;;;;;;5.40;2.00;;;;;;;24.58;28.47;98948.50;109578;1251;73443;-70
2023/05/15 09:07:37;;;;;;;6.70;1.60;;;;;;;24.33;28.32;98946.08;109624;1252;70318;-67
2023/05/15 09:10:05;;;;;;;2.40;1.40;;;;;;;24.15;28.07;98959.55;109509;1253;71342;-67
2023/05/15 09:12:32;;;;;;;5.20;2.40;;;;;;;24.06;28.04;98956.74;109487;1253;61459;-68
2023/05/15 09:15:12;;;;;;;1.80;1.60;;;;;;;24.00;28.05;98966.02;109533;1253;61207;-66
2023/05/15 09:17:39;;;;;;;5.20;2.20;;;;;;;23.97;27.84;98951.02;109408;1254;76316;-69
2023/05/15 09:20:07;;;;;;;4.20;1.40;;;;;;;24.09;27.61;98920.73;109590;1253;69993;-65
2023/05/15 09:22:34;;;;;;;3.10;1.70;;;;;;;24.06;28.25;98920.17;109498;1254;73547;-67
2023/05/15 09:25:03;;;;;;;5.90;2.00;;;;;;;23.97;29.10;98925.70;109583;1252;62481;-65
2023/05/15 09:27:29;;;;;;;5.20;1.80;;;;;;;24.24;28.74;98923.52;109565;1252;61973;-67
2023/05/15 09:30:07;;;;;;;4.80;1.80;;;;;;;24.78;27.07;98942.98;109597;1253;76502;-67
2023/05/15 09:32:36;;;;;;;7.70;1.90;;;;;;;25.25;26.20;98939.01;109440;1253;68292;-72
2023/05/15 09:35:03;;;;;;;5.50;1.90;;;;;;;25.57;26.07;98912.44;109504;1252;72298;-69
2023/05/15 09:37:31;;;;;;;4.70;1.80;;;;;;;25.84;25.84;98894.45;109477;1253;60450;-71
2023/05/15 09:40:08;;;;;;;3.70;1.70;;;;;;;26.06;25.96;98887.09;109565;1252;60757;-68
2023/05/15 09:42:35;;;;;;;5.20;2.00;;;;;;;26.22;25.92;98899.04;109545;1252;76805;-69
2023/05/15 09:45:02;;;;;;;11.70;2.20;;;;;;;26.18;25.41;98897.33;109581;1252;68167;-70
2023/05/15 09:47:29;;;;;;;10.90;3.20;;;;;;;26.10;23.68;98911.59;109504;1253;74945;-68
2023/05/15 09:49:56;;;;;;;9.00;2.20;;;;;;;25.98;24.00;98901.81;109534;1253;62512;-69
2023/05/15 09:52:23;;;;;;;10.20;1.80;;;;;;;25.74;24.36;98905.73;109600;1251;62441;-68
2023/05/15 09:54:50;;;;;;;5.20;2.30;;;;;;;25.66;25.47;98880.40;109534;1256;75077;-65
2023/05/15 09:57:20;;;;;;;9.60;2.20;;;;;;;25.77;26.13;98864.59;109528;1253;66672;-64
2023/05/15 09:59:47;;;;;;;8.80;2.20;;;;;;;26.05;25.87;98864.70;109555;1252;74722;-66
2023/05/15 10:02:30;;;;;;;9.80;2.80;;;;;;;26.30;25.07;98877.43;109541;1252;61421;-67
2023/05/15 10:04:57;;;;;;;14.80;2.30;;;;;;;26.44;24.39;98856.84;109635;1252;61183;-71
2023/05/15 10:07:27;;;;;;;9.10;2.20;;;;;;;26.25;24.03;98869.73;109533;1252;76167;-70
2023/05/15 10:09:54;;;;;;;7.00;2.00;;;;;;;25.85;24.09;98862.41;109487;1253;68500;-69
2023/05/15 10:12:21;;;;;;;6.10;1.80;;;;;;;25.50;24.48;98853.90;109494;1253;71897;-71
2023/05/15 10:14:48;;;;;;;12.10;3.10;;;;;;;25.31;25.89;98831.26;109323;1253;61839;-69
2023/05/15 10:17:15;;;;;;;4.60;1.80;;;;;;;25.19;25.65;98833.71;109522;1252;61037;-71
2023/05/15 10:19:41;;;;;;;12.50;2.70;;;;;;;25.12;26.73;98815.90;109388;1251;76957;-68
2023/05/15 10:22:23;;;;;;;5.30;1.90;;;;;;;25.08;25.73;98851.02;109370;1251;69990;-72
2023/05/15 10:25:07;;;;;;;2.90;2.00;;;;;;;24.94;25.40;98833.62;109516;1252;74792;-72
2023/05/15 10:27:35;;;;;;;4.10;1.70;;;;;;;24.79;25.16;98840.14;109337;1253;62573;-69
2023/05/15 10:30:02;;;;;;;8.70;2.20;;;;;;;24.65;24.93;98844.79;109504;1253;59128;-68
2023/05/15 10:32:29;;;;;;;3.40;1.40;;;;;;;24.54;25.62;98874.77;109444;1252;75798;-70
2023/05/15 10:34:56;;;;;;;9.20;2.30;;;;;;;24.39;25.80;98866.20;109458;1252;66863;-69
2023/05/15 10:37:23;;;;;;;3.80;2.10;;;;;;;24.20;25.59;98895.80;109377;1252;74710;-70
2023/05/15 10:39:50;;;;;;;5.40;2.00;;;;;;;24.05;25.52;98874.25;109493;1252;61272;-72
2023/05/15 10:42:16;;;;;;;6.50;1.90;;;;;;;24.00;25.98;98866.86;109353;1253;59587;-71
2023/05/15 10:44:43;;;;;;;6.60;2.10;;;;;;;24.03;27.07;98859.90;109370;1253;74763;-68
2023/05/15 10:47:10;;;;;;;7.40;2.10;;;;;;;24.08;27.21;98870.13;109388;1252;67936;-68
2023/05/15 10:49:37;;;;;;;5.30;2.10;;;;;;;24.08;26.93;98861.16;109446;1253;72034;-66
2023/05/15 10:52:05;;;;;;;8.10;2.30;;;;;;;24.01;26.67;98854.26;109566;1252;60718;-68
2023/05/15 10:54:32;;;;;;;4.20;2.20;;;;;;;23.98;27.58;98842.68;109491;1253;63059;-69
2023/05/15 10:56:59;;;;;;;10.40;2.60;;;;;;;24.06;27.45;98877.52;109281;1253;73385;-67
2023/05/15 10:59:33;;;;;;;4.70;1.90;;;;;;;24.11;27.02;98896.07;109382;1253;66735;-67
2023/05/15 11:02:18;;;;;;;7.00;2.10;;;;;;;24.03;27.02;98863.66;109352;1253;72948;-68
2023/05/15 11:04:44;;;;;;;6.70;2.00;;;;;;;23.93;27.50;98857.45;109420;1253;61218;-70
2023/05/15 11:07:12;;;;;;;4.50;1.90;;;;;;;23.87;26.49;98862.13;109388;1252;60967;-68
2023/05/15 11:09:39;;;;;;;3.20;1.90;;;;;;;23.81;25.41;98844.30;109348;1252;74093;-67
2023/05/15 11:12:07;;;;;;;7.00;1.70;;;;;;;23.79;25.82;98854.30;109432;1252;69071;-71
2023/05/15 11:14:39;;;;;;;6.40;1.60;;;;;;;23.81;25.96;98825.95;109480;1253;74808;-68
2023/05/15 11:17:15;;;;;;;5.10;1.90;;;;;;;23.84;25.68;98842.08;109508;1252;61197;-66
2023/05/15 11:19:48;;;;;;;18.90;2.90;;;;;;;23.83;25.55;98839.52;109613;1253;60166;-69
2023/05/15 11:22:19;;;;;;;4.20;1.40;;;;;;;23.81;25.33;98858.76;109572;1253;76723;-68
2023/05/15 11:24:52;;;;;;;3.30;2.40;;;;;;;23.80;25.55;98850.83;109663;1251;70269;-67
2023/05/15 11:27:23;;;;;;;5.30;2.10;;;;;;;23.81;25.47;98841.91;109622;1253;74363;-69
2023/05/15 11:30:22;;;;;;;3.80;1.70;;;;;;;23.79;25.99;98844.70;109492;1252;61365;-67